TimeCDT,TemperatureF,Dew PointF,Humidity,Sea Level PressureIn,VisibilityMPH,Wind Direction,Wind SpeedMPH,Gust SpeedMPH,PrecipitationIn,Events,Conditions,WindDirDegrees,DateUTC
12:15 AM,58.6,58.6,100,30.06,0.2,Calm,Calm,-,N/A,Fog,Fog,0,2012-10-10 05:15:00
12:35 AM,58.5,58.5,100,30.06,0.8,Calm,Calm,-,N/A,,Mist,0,2012-10-10 05:35:00
12:55 AM,58.8,58.8,100,30.05,5.0,Calm,Calm,-,N/A,,Clear,0,2012-10-10 05:55:00
1:15 AM,58.1,58.1,100,30.06,3.0,Calm,Calm,-,N/A,,Scattered Clouds,0,2012-10-10 06:15:00
1:35 AM,59.9,59.9,100,30.07,7.0,Calm,Calm,-,N/A,,Scattered Clouds,0,2012-10-10 06:35:00
1:55 AM,59.9,59.9,100,30.07,5.0,Calm,Calm,-,N/A,,Mostly Cloudy,0,2012-10-10 06:55:00
2:15 AM,60.8,60.8,100,30.07,7.0,North,3.5,-,N/A,,Mostly Cloudy,350,2012-10-10 07:15:00
2:35 AM,61.2,61.2,100,30.07,7.0,NNW,3.5,-,N/A,,Scattered Clouds,340,2012-10-10 07:35:00
2:55 AM,61.2,61.2,100,30.07,4.0,Calm,Calm,-,N/A,,Scattered Clouds,0,2012-10-10 07:55:00
3:15 AM,60.6,60.6,100,30.07,3.0,NNW,3.5,-,N/A,,Clear,340,2012-10-10 08:15:00
3:35 AM,61.7,61.7,100,30.08,3.0,NNW,4.6,-,N/A,,Scattered Clouds,340,2012-10-10 08:35:00
3:55 AM,63.5,63.5,100,30.09,4.0,NNW,3.5,-,N/A,,Mostly Cloudy,340,2012-10-10 08:55:00
4:15 AM,63.0,63.0,100,30.09,4.0,North,3.5,-,N/A,,Mostly Cloudy,350,2012-10-10 09:15:00
4:35 AM,62.6,62.6,100,30.09,4.0,NNW,4.6,-,N/A,,Scattered Clouds,340,2012-10-10 09:35:00
4:55 AM,63.0,63.0,100,30.10,5.0,North,3.5,-,N/A,,Scattered Clouds,350,2012-10-10 09:55:00
5:15 AM,63.5,63.5,100,30.10,5.0,NE,3.5,-,N/A,,Mostly Cloudy,40,2012-10-10 10:15:00
5:35 AM,62.6,62.6,100,30.11,4.0,Calm,Calm,-,N/A,,Scattered Clouds,0,2012-10-10 10:35:00
5:49 AM,62.6,62.6,100,30.12,7.0,NNE,4.6,-,N/A,,Clear,20,2012-10-10 10:49:00
5:55 AM,62.1,62.1,100,30.11,3.0,Calm,Calm,-,N/A,,Clear,0,2012-10-10 10:55:00
6:50 AM,62.6,62.6,100,30.13,3.0,North,3.5,-,N/A,,Scattered Clouds,360,2012-10-10 11:50:00
7:50 AM,64.4,64.4,100,30.14,3.0,NNE,3.5,-,N/A,,Scattered Clouds,30,2012-10-10 12:50:00
8:50 AM,69.8,69.8,100,30.16,5.0,North,3.5,-,N/A,,Clear,360,2012-10-10 13:50:00
9:48 AM,73.4,69.8,88,30.18,6.0,ENE,5.8,-,N/A,,Clear,60,2012-10-10 14:48:00
11:50 AM,80.6,66.2,61,30.16,7.0,NNW,5.8,-,N/A,,Scattered Clouds,330,2012-10-10 16:50:00
12:50 PM,82.4,64.4,54,30.14,7.0,NNE,5.8,-,N/A,,Clear,20,2012-10-10 17:50:00
1:50 PM,84.2,64.4,51,-9999,7.0,North,9.2,-,N/A,,Clear,10,2012-10-10 18:50:00
2:50 PM,84.2,64.4,51,30.08,7.0,NE,5.8,-,N/A,,Scattered Clouds,40,2012-10-10 19:50:00
4:10 PM,82.4,64.4,54,30.08,7.0,North,9.2,-,N/A,,Partly Cloudy,360,2012-10-10 21:10:00
5:50 PM,80.6,64.4,58,30.09,7.0,ENE,9.2,-,N/A,,Partly Cloudy,60,2012-10-10 22:50:00
6:50 PM,73.4,66.2,78,30.10,7.0,NE,6.9,-,N/A,,Clear,50,2012-10-10 23:50:00
7:15 PM,71.6,65.8,82,30.11,10.0,Calm,Calm,-,N/A,,Clear,0,2012-10-11 00:15:00
7:35 PM,68.4,66.0,92,30.11,7.0,Calm,Calm,-,N/A,,Clear,0,2012-10-11 00:35:00
7:55 PM,66.6,66.2,99,30.11,10.0,Calm,Calm,-,N/A,,Clear,0,2012-10-11 00:55:00
8:15 PM,66.2,65.3,97,30.12,10.0,Calm,Calm,-,N/A,,Clear,0,2012-10-11 01:15:00
8:35 PM,65.3,65.1,99,30.13,10.0,Calm,Calm,-,N/A,,Clear,0,2012-10-11 01:35:00
8:55 PM,64.8,64.8,100,30.14,10.0,Calm,Calm,-,N/A,,Clear,0,2012-10-11 01:55:00
9:15 PM,65.3,64.9,99,30.14,10.0,Calm,Calm,-,N/A,,Clear,0,2012-10-11 02:15:00
9:35 PM,64.4,64.4,100,30.14,10.0,Calm,Calm,-,N/A,,Clear,0,2012-10-11 02:35:00
9:55 PM,64.2,64.2,100,30.15,10.0,Calm,Calm,-,N/A,,Clear,0,2012-10-11 02:55:00
10:15 PM,63.7,63.7,100,30.15,10.0,Calm,Calm,-,N/A,,Clear,0,2012-10-11 03:15:00
10:35 PM,63.7,63.7,100,30.15,10.0,Calm,Calm,-,N/A,,Clear,0,2012-10-11 03:35:00
10:55 PM,62.8,62.8,100,30.15,10.0,Calm,Calm,-,N/A,,Clear,0,2012-10-11 03:55:00
11:15 PM,62.4,62.4,100,30.15,10.0,Calm,Calm,-,N/A,,Clear,0,2012-10-11 04:15:00
11:35 PM,63.1,63.1,100,30.15,10.0,Calm,Calm,-,N/A,,Clear,0,2012-10-11 04:35:00
11:55 PM,61.9,61.9,100,30.15,10.0,Calm,Calm,-,N/A,,Clear,0,2012-10-11 04:55:00